sensor_id;sensor_type;location;lat;lon;timestamp;P1;durP1;ratioP1;P2;durP2;ratioP2
20593;SDS011;10455;48.732;10.266;2023-05-14T00:02:57;22.37;;;20.07;;
20593;SDS011;10455;48.732;10.266;2023-05-14T00:08:01;22.80;;;19.97;;
20593;SDS011;10455;48.732;10.266;2023-05-14T00:13:03;25.17;;;21.33;;
20593;SDS011;10455;48.732;10.266;2023-05-14T00:18:05;21.77;;;19.47;;
20593;SDS011;10455;48.732;10.266;2023-05-14T00:23:08;25.23;;;22.50;;
20593;SDS011;10455;48.732;10.266;2023-05-14T00:28:10;26.50;;;23.57;;
20593;SDS011;10455;48.732;10.266;2023-05-14T00:33:12;26.07;;;23.23;;
20593;SDS011;10455;48.732;10.266;2023-05-14T00:38:15;28.97;;;24.97;;
20593;SDS011;10455;48.732;10.266;2023-05-14T00:43:18;24.63;;;21.93;;
20593;SDS011;10455;48.732;10.266;2023-05-14T00:48:21;25.40;;;22.70;;
20593;SDS011;10455;48.732;10.266;2023-05-14T00:53:25;25.67;;;22.90;;
20593;SDS011;10455;48.732;10.266;2023-05-14T00:58:27;28.37;;;24.23;;
20593;SDS011;10455;48.732;10.266;2023-05-14T01:03:29;28.50;;;23.87;;
20593;SDS011;10455;48.732;10.266;2023-05-14T01:08:35;33.40;;;26.60;;
20593;SDS011;10455;48.732;10.266;2023-05-14T01:13:50;38.53;;;28.50;;
20593;SDS011;10455;48.732;10.266;2023-05-14T01:19:09;41.10;;;28.87;;
20593;SDS011;10455;48.732;10.266;2023-05-14T01:24:23;29.63;;;26.27;;
20593;SDS011;10455;48.732;10.266;2023-05-14T01:29:25;29.60;;;25.77;;
20593;SDS011;10455;48.732;10.266;2023-05-14T01:34:29;30.53;;;26.30;;
20593;SDS011;10455;48.732;10.266;2023-05-14T01:39:35;36.73;;;29.27;;
20593;SDS011;10455;48.732;10.266;2023-05-14T01:44:37;29.43;;;25.93;;
20593;SDS011;10455;48.732;10.266;2023-05-14T01:49:39;32.23;;;26.73;;
20593;SDS011;10455;48.732;10.266;2023-05-14T01:54:43;40.87;;;32.17;;
20593;SDS011;10455;48.732;10.266;2023-05-14T01:59:44;35.33;;;29.63;;
20593;SDS011;10455;48.732;10.266;2023-05-14T02:04:46;43.90;;;34.17;;
20593;SDS011;10455;48.732;10.266;2023-05-14T02:09:50;35.03;;;31.20;;
20593;SDS011;10455;48.732;10.266;2023-05-14T02:14:52;37.53;;;30.90;;
20593;SDS011;10455;48.732;10.266;2023-05-14T02:19:54;34.97;;;29.43;;
20593;SDS011;10455;48.732;10.266;2023-05-14T02:24:57;30.87;;;25.77;;
20593;SDS011;10455;48.732;10.266;2023-05-14T02:29:59;36.67;;;29.47;;
20593;SDS011;10455;48.732;10.266;2023-05-14T02:35:01;30.73;;;26.53;;
20593;SDS011;10455;48.732;10.266;2023-05-14T02:40:05;29.77;;;26.63;;
20593;SDS011;10455;48.732;10.266;2023-05-14T02:45:08;30.47;;;27.33;;
20593;SDS011;10455;48.732;10.266;2023-05-14T02:50:10;31.07;;;26.53;;
20593;SDS011;10455;48.732;10.266;2023-05-14T02:55:14;29.33;;;26.00;;
20593;SDS011;10455;48.732;10.266;2023-05-14T03:00:16;30.13;;;26.80;;
20593;SDS011;10455;48.732;10.266;2023-05-14T03:05:18;35.77;;;29.00;;
20593;SDS011;10455;48.732;10.266;2023-05-14T03:10:22;37.00;;;30.47;;
20593;SDS011;10455;48.732;10.266;2023-05-14T03:15:23;28.20;;;25.20;;
20593;SDS011;10455;48.732;10.266;2023-05-14T03:20:25;39.40;;;30.70;;
20593;SDS011;10455;48.732;10.266;2023-05-14T03:25:29;36.17;;;28.83;;
20593;SDS011;10455;48.732;10.266;2023-05-14T03:30:31;46.10;;;33.60;;
20593;SDS011;10455;48.732;10.266;2023-05-14T03:35:33;40.97;;;30.70;;
20593;SDS011;10455;48.732;10.266;2023-05-14T03:40:36;36.37;;;30.30;;
20593;SDS011;10455;48.732;10.266;2023-05-14T03:45:38;45.37;;;32.47;;
20593;SDS011;10455;48.732;10.266;2023-05-14T03:50:40;40.33;;;31.10;;
20593;SDS011;10455;48.732;10.266;2023-05-14T03:55:43;43.77;;;33.00;;
20593;SDS011;10455;48.732;10.266;2023-05-14T04:00:45;37.47;;;31.73;;
20593;SDS011;10455;48.732;10.266;2023-05-14T04:05:47;33.87;;;29.17;;
20593;SDS011;10455;48.732;10.266;2023-05-14T04:10:50;40.37;;;30.63;;
20593;SDS011;10455;48.732;10.266;2023-05-14T04:15:52;34.23;;;29.43;;
20593;SDS011;10455;48.732;10.266;2023-05-14T04:20:54;38.17;;;30.63;;
20593;SDS011;10455;48.732;10.266;2023-05-14T04:25:57;39.83;;;31.13;;
20593;SDS011;10455;48.732;10.266;2023-05-14T04:30:59;31.47;;;28.07;;
20593;SDS011;10455;48.732;10.266;2023-05-14T04:36:01;32.43;;;29.00;;
20593;SDS011;10455;48.732;10.266;2023-05-14T04:41:05;33.77;;;28.80;;
20593;SDS011;10455;48.732;10.266;2023-05-14T04:46:07;29.17;;;26.23;;
20593;SDS011;10455;48.732;10.266;2023-05-14T04:51:09;35.37;;;26.90;;
20593;SDS011;10455;48.732;10.266;2023-05-14T04:56:12;31.30;;;27.90;;
20593;SDS011;10455;48.732;10.266;2023-05-14T05:01:14;32.93;;;27.97;;
20593;SDS011;10455;48.732;10.266;2023-05-14T05:06:16;31.57;;;26.50;;
20593;SDS011;10455;48.732;10.266;2023-05-14T05:11:19;37.20;;;32.37;;
20593;SDS011;10455;48.732;10.266;2023-05-14T05:16:21;31.67;;;28.23;;
20593;SDS011;10455;48.732;10.266;2023-05-14T05:21:23;26.63;;;23.97;;
20593;SDS011;10455;48.732;10.266;2023-05-14T05:26:27;28.27;;;25.27;;
20593;SDS011;10455;48.732;10.266;2023-05-14T05:31:28;23.50;;;21.27;;
20593;SDS011;10455;48.732;10.266;2023-05-14T05:36:31;26.43;;;23.63;;
20593;SDS011;10455;48.732;10.266;2023-05-14T05:41:34;27.67;;;24.97;;
20593;SDS011;10455;48.732;10.266;2023-05-14T05:46:36;24.00;;;21.67;;
20593;SDS011;10455;48.732;10.266;2023-05-14T05:51:38;23.30;;;20.67;;
20593;SDS011;10455;48.732;10.266;2023-05-14T05:56:41;28.83;;;25.87;;
20593;SDS011;10455;48.732;10.266;2023-05-14T06:01:43;21.67;;;19.43;;
20593;SDS011;10455;48.732;10.266;2023-05-14T06:06:46;18.17;;;16.48;;
20593;SDS011;10455;48.732;10.266;2023-05-14T06:11:49;18.08;;;16.27;;
20593;SDS011;10455;48.732;10.266;2023-05-14T06:16:51;18.85;;;17.13;;
20593;SDS011;10455;48.732;10.266;2023-05-14T06:21:53;16.30;;;14.85;;
20593;SDS011;10455;48.732;10.266;2023-05-14T06:26:57;15.20;;;13.70;;
20593;SDS011;10455;48.732;10.266;2023-05-14T06:31:59;14.57;;;13.23;;
20593;SDS011;10455;48.732;10.266;2023-05-14T06:37:02;14.07;;;12.77;;
20593;SDS011;10455;48.732;10.266;2023-05-14T06:42:07;14.55;;;13.15;;
20593;SDS011;10455;48.732;10.266;2023-05-14T06:47:09;14.00;;;12.70;;
20593;SDS011;10455;48.732;10.266;2023-05-14T06:52:11;14.82;;;13.52;;
20593;SDS011;10455;48.732;10.266;2023-05-14T06:57:14;14.70;;;13.40;;
20593;SDS011;10455;48.732;10.266;2023-05-14T07:02:16;13.55;;;12.52;;
20593;SDS011;10455;48.732;10.266;2023-05-14T07:07:18;12.82;;;11.82;;
20593;SDS011;10455;48.732;10.266;2023-05-14T07:12:21;15.38;;;14.00;;
20593;SDS011;10455;48.732;10.266;2023-05-14T07:17:23;12.52;;;11.52;;
20593;SDS011;10455;48.732;10.266;2023-05-14T07:22:25;13.55;;;12.35;;
20593;SDS011;10455;48.732;10.266;2023-05-14T07:27:28;15.63;;;14.40;;
20593;SDS011;10455;48.732;10.266;2023-05-14T07:32:30;14.95;;;13.70;;
20593;SDS011;10455;48.732;10.266;2023-05-14T07:37:32;13.27;;;12.20;;
20593;SDS011;10455;48.732;10.266;2023-05-14T07:42:36;11.90;;;10.93;;
20593;SDS011;10455;48.732;10.266;2023-05-14T07:47:38;11.30;;;10.40;;
20593;SDS011;10455;48.732;10.266;2023-05-14T07:52:40;11.68;;;10.68;;
20593;SDS011;10455;48.732;10.266;2023-05-14T07:57:43;10.57;;;9.68;;
20593;SDS011;10455;48.732;10.266;2023-05-14T08:02:45;10.88;;;9.88;;
20593;SDS011;10455;48.732;10.266;2023-05-14T08:07:47;9.95;;;9.13;;
20593;SDS011;10455;48.732;10.266;2023-05-14T08:12:51;11.82;;;10.73;;
20593;SDS011;10455;48.732;10.266;2023-05-14T08:17:53;10.60;;;9.70;;
20593;SDS011;10455;48.732;10.266;2023-05-14T08:22:55;11.35;;;10.40;;
20593;SDS011;10455;48.732;10.266;2023-05-14T08:27:59;9.18;;;8.38;;
20593;SDS011;10455;48.732;10.266;2023-05-14T08:33:01;10.48;;;9.57;;
20593;SDS011;10455;48.732;10.266;2023-05-14T08:38:03;8.50;;;7.70;;
20593;SDS011;10455;48.732;10.266;2023-05-14T08:43:06;8.90;;;8.15;;
20593;SDS011;10455;48.732;10.266;2023-05-14T08:48:10;8.90;;;8.18;;
20593;SDS011;10455;48.732;10.266;2023-05-14T08:53:17;9.52;;;8.73;;
20593;SDS011;10455;48.732;10.266;2023-05-14T08:58:20;8.45;;;7.85;;
20593;SDS011;10455;48.732;10.266;2023-05-14T09:03:22;8.38;;;7.60;;
20593;SDS011;10455;48.732;10.266;2023-05-14T09:08:24;8.68;;;7.90;;
20593;SDS011;10455;48.732;10.266;2023-05-14T09:13:27;9.00;;;8.20;;
20593;SDS011;10455;48.732;10.266;2023-05-14T09:18:30;8.25;;;7.55;;
20593;SDS011;10455;48.732;10.266;2023-05-14T09:23:32;7.70;;;7.00;;
20593;SDS011;10455;48.732;10.266;2023-05-14T09:28:35;7.55;;;6.80;;
20593;SDS011;10455;48.732;10.266;2023-05-14T09:33:40;7.57;;;6.88;;
20593;SDS011;10455;48.732;10.266;2023-05-14T09:38:42;6.85;;;6.35;;
20593;SDS011;10455;48.732;10.266;2023-05-14T09:43:45;6.95;;;6.40;;
20593;SDS011;10455;48.732;10.266;2023-05-14T09:48:47;6.40;;;5.90;;
20593;SDS011;10455;48.732;10.266;2023-05-14T09:53:49;6.25;;;5.85;;
20593;SDS011;10455;48.732;10.266;2023-05-14T09:58:55;6.85;;;6.35;;
20593;SDS011;10455;48.732;10.266;2023-05-14T10:03:57;5.65;;;5.15;;
20593;SDS011;10455;48.732;10.266;2023-05-14T10:09:00;6.03;;;5.63;;
20593;SDS011;10455;48.732;10.266;2023-05-14T10:14:06;5.95;;;5.55;;
20593;SDS011;10455;48.732;10.266;2023-05-14T10:19:10;6.80;;;5.85;;
20593;SDS011;10455;48.732;10.266;2023-05-14T10:24:12;6.75;;;6.25;;
20593;SDS011;10455;48.732;10.266;2023-05-14T10:29:16;6.95;;;6.35;;
20593;SDS011;10455;48.732;10.266;2023-05-14T10:34:30;7.50;;;6.80;;
20593;SDS011;10455;48.732;10.266;2023-05-14T10:39:41;6.57;;;6.07;;
20593;SDS011;10455;48.732;10.266;2023-05-14T10:44:52;6.03;;;5.53;;
20593;SDS011;10455;48.732;10.266;2023-05-14T10:49:57;6.90;;;6.25;;
20593;SDS011;10455;48.732;10.266;2023-05-14T10:55:01;5.60;;;5.13;;
20593;SDS011;10455;48.732;10.266;2023-05-14T11:00:08;5.45;;;4.95;;
20593;SDS011;10455;48.732;10.266;2023-05-14T11:05:13;5.07;;;4.78;;
20593;SDS011;10455;48.732;10.266;2023-05-14T11:10:16;4.88;;;4.50;;
20593;SDS011;10455;48.732;10.266;2023-05-14T11:15:22;5.18;;;4.78;;
20593;SDS011;10455;48.732;10.266;2023-05-14T11:20:25;5.07;;;4.78;;
20593;SDS011;10455;48.732;10.266;2023-05-14T11:25:26;5.20;;;4.78;;
20593;SDS011;10455;48.732;10.266;2023-05-14T11:30:30;5.28;;;4.88;;
20593;SDS011;10455;48.732;10.266;2023-05-14T11:35:32;4.68;;;4.28;;
20593;SDS011;10455;48.732;10.266;2023-05-14T11:40:34;4.45;;;4.13;;
20593;SDS011;10455;48.732;10.266;2023-05-14T11:45:37;4.72;;;4.43;;
20593;SDS011;10455;48.732;10.266;2023-05-14T11:50:39;4.57;;;4.18;;
20593;SDS011;10455;48.732;10.266;2023-05-14T11:55:44;3.88;;;3.63;;
20593;SDS011;10455;48.732;10.266;2023-05-14T12:00:49;3.90;;;3.60;;
20593;SDS011;10455;48.732;10.266;2023-05-14T12:05:55;4.03;;;3.55;;
20593;SDS011;10455;48.732;10.266;2023-05-14T12:10:57;4.53;;;4.20;;
20593;SDS011;10455;48.732;10.266;2023-05-14T12:16:02;4.97;;;4.57;;
20593;SDS011;10455;48.732;10.266;2023-05-14T12:21:04;5.07;;;4.68;;
20593;SDS011;10455;48.732;10.266;2023-05-14T12:26:07;5.30;;;4.90;;
20593;SDS011;10455;48.732;10.266;2023-05-14T12:31:11;4.90;;;4.55;;
20593;SDS011;10455;48.732;10.266;2023-05-14T12:36:13;4.97;;;4.60;;
20593;SDS011;10455;48.732;10.266;2023-05-14T12:41:15;6.35;;;5.75;;
20593;SDS011;10455;48.732;10.266;2023-05-14T12:46:18;6.13;;;5.63;;
20593;SDS011;10455;48.732;10.266;2023-05-14T12:51:20;6.20;;;5.60;;
20593;SDS011;10455;48.732;10.266;2023-05-14T12:56:22;5.30;;;4.90;;
20593;SDS011;10455;48.732;10.266;2023-05-14T13:01:28;5.25;;;4.75;;
20593;SDS011;10455;48.732;10.266;2023-05-14T13:06:30;5.90;;;5.40;;
20593;SDS011;10455;48.732;10.266;2023-05-14T13:11:32;5.47;;;4.97;;
20593;SDS011;10455;48.732;10.266;2023-05-14T13:16:36;6.65;;;5.13;;
20593;SDS011;10455;48.732;10.266;2023-05-14T13:21:38;5.85;;;5.35;;
20593;SDS011;10455;48.732;10.266;2023-05-14T13:26:40;6.10;;;5.53;;
20593;SDS011;10455;48.732;10.266;2023-05-14T13:31:44;6.47;;;5.88;;
20593;SDS011;10455;48.732;10.266;2023-05-14T13:36:47;5.88;;;5.30;;
20593;SDS011;10455;48.732;10.266;2023-05-14T13:41:48;6.50;;;6.00;;
20593;SDS011;10455;48.732;10.266;2023-05-14T13:46:52;6.68;;;5.88;;
20593;SDS011;10455;48.732;10.266;2023-05-14T13:51:54;5.90;;;5.40;;
20593;SDS011;10455;48.732;10.266;2023-05-14T13:56:55;5.80;;;5.30;;
20593;SDS011;10455;48.732;10.266;2023-05-14T14:01:59;6.50;;;5.90;;
20593;SDS011;10455;48.732;10.266;2023-05-14T14:07:01;6.85;;;6.28;;
20593;SDS011;10455;48.732;10.266;2023-05-14T14:12:03;6.10;;;5.60;;
20593;SDS011;10455;48.732;10.266;2023-05-14T14:17:06;5.82;;;5.43;;
20593;SDS011;10455;48.732;10.266;2023-05-14T14:22:08;5.45;;;5.05;;
20593;SDS011;10455;48.732;10.266;2023-05-14T14:27:11;5.45;;;4.95;;
20593;SDS011;10455;48.732;10.266;2023-05-14T14:32:15;6.00;;;4.70;;
20593;SDS011;10455;48.732;10.266;2023-05-14T14:37:17;4.47;;;4.18;;
20593;SDS011;10455;48.732;10.266;2023-05-14T14:42:18;5.05;;;4.65;;
20593;SDS011;10455;48.732;10.266;2023-05-14T14:47:22;5.20;;;4.43;;
20593;SDS011;10455;48.732;10.266;2023-05-14T14:52:24;4.18;;;3.88;;
20593;SDS011;10455;48.732;10.266;2023-05-14T14:57:26;4.90;;;4.50;;
20593;SDS011;10455;48.732;10.266;2023-05-14T15:02:29;5.18;;;4.78;;
20593;SDS011;10455;48.732;10.266;2023-05-14T15:07:31;5.07;;;4.70;;
20593;SDS011;10455;48.732;10.266;2023-05-14T15:12:34;6.60;;;5.13;;
20593;SDS011;10455;48.732;10.266;2023-05-14T15:17:37;4.95;;;4.55;;
20593;SDS011;10455;48.732;10.266;2023-05-14T15:22:39;4.65;;;4.35;;
20593;SDS011;10455;48.732;10.266;2023-05-14T15:27:42;5.07;;;4.65;;
20593;SDS011;10455;48.732;10.266;2023-05-14T15:32:45;4.78;;;4.40;;
20593;SDS011;10455;48.732;10.266;2023-05-14T15:37:47;5.60;;;5.20;;
20593;SDS011;10455;48.732;10.266;2023-05-14T15:42:49;5.53;;;5.10;;
20593;SDS011;10455;48.732;10.266;2023-05-14T15:47:52;5.43;;;5.03;;
20593;SDS011;10455;48.732;10.266;2023-05-14T15:52:54;4.70;;;4.30;;
20593;SDS011;10455;48.732;10.266;2023-05-14T15:57:56;4.60;;;4.30;;
20593;SDS011;10455;48.732;10.266;2023-05-14T16:02:59;5.03;;;4.63;;
20593;SDS011;10455;48.732;10.266;2023-05-14T16:08:01;24.38;;;20.70;;
20593;SDS011;10455;48.732;10.266;2023-05-14T16:13:03;6.32;;;5.75;;
20593;SDS011;10455;48.732;10.266;2023-05-14T16:18:06;5.97;;;5.47;;
20593;SDS011;10455;48.732;10.266;2023-05-14T16:23:08;9.73;;;8.82;;
20593;SDS011;10455;48.732;10.266;2023-05-14T16:28:10;4.88;;;4.47;;
20593;SDS011;10455;48.732;10.266;2023-05-14T16:33:13;6.00;;;5.45;;
20593;SDS011;10455;48.732;10.266;2023-05-14T16:38:15;4.75;;;4.45;;
20593;SDS011;10455;48.732;10.266;2023-05-14T16:43:18;5.18;;;4.72;;
20593;SDS011;10455;48.732;10.266;2023-05-14T16:48:21;5.22;;;4.82;;
20593;SDS011;10455;48.732;10.266;2023-05-14T16:53:25;6.35;;;5.95;;
20593;SDS011;10455;48.732;10.266;2023-05-14T16:58:27;5.00;;;4.70;;
20593;SDS011;10455;48.732;10.266;2023-05-14T17:03:30;5.50;;;5.00;;
20593;SDS011;10455;48.732;10.266;2023-05-14T17:08:32;5.30;;;4.90;;
20593;SDS011;10455;48.732;10.266;2023-05-14T17:13:34;5.22;;;4.82;;
20593;SDS011;10455;48.732;10.266;2023-05-14T17:18:38;5.82;;;5.35;;
20593;SDS011;10455;48.732;10.266;2023-05-14T17:23:40;5.80;;;5.40;;
20593;SDS011;10455;48.732;10.266;2023-05-14T17:28:42;7.05;;;6.40;;
20593;SDS011;10455;48.732;10.266;2023-05-14T17:33:45;6.70;;;6.10;;
20593;SDS011;10455;48.732;10.266;2023-05-14T17:38:47;7.07;;;6.45;;
20593;SDS011;10455;48.732;10.266;2023-05-14T17:43:49;6.90;;;6.20;;
20593;SDS011;10455;48.732;10.266;2023-05-14T17:48:53;5.60;;;5.10;;
20593;SDS011;10455;48.732;10.266;2023-05-14T17:53:55;5.60;;;5.10;;
20593;SDS011;10455;48.732;10.266;2023-05-14T17:58:57;6.15;;;5.55;;
20593;SDS011;10455;48.732;10.266;2023-05-14T18:04:00;6.18;;;5.68;;
20593;SDS011;10455;48.732;10.266;2023-05-14T18:09:02;6.10;;;5.47;;
20593;SDS011;10455;48.732;10.266;2023-05-14T18:14:04;5.82;;;5.22;;
20593;SDS011;10455;48.732;10.266;2023-05-14T18:19:07;6.50;;;5.90;;
20593;SDS011;10455;48.732;10.266;2023-05-14T18:24:10;6.63;;;6.10;;
20593;SDS011;10455;48.732;10.266;2023-05-14T18:29:12;6.00;;;5.40;;
20593;SDS011;10455;48.732;10.266;2023-05-14T18:34:15;6.28;;;5.70;;
20593;SDS011;10455;48.732;10.266;2023-05-14T18:39:17;6.07;;;5.57;;
20593;SDS011;10455;48.732;10.266;2023-05-14T18:44:19;6.37;;;5.67;;
20593;SDS011;10455;48.732;10.266;2023-05-14T18:49:22;6.23;;;5.73;;
20593;SDS011;10455;48.732;10.266;2023-05-14T18:54:24;6.10;;;5.50;;
20593;SDS011;10455;48.732;10.266;2023-05-14T18:59:26;6.10;;;5.50;;
20593;SDS011;10455;48.732;10.266;2023-05-14T19:04:29;5.87;;;5.47;;
20593;SDS011;10455;48.732;10.266;2023-05-14T19:09:32;5.80;;;5.20;;
20593;SDS011;10455;48.732;10.266;2023-05-14T19:14:33;5.90;;;5.50;;
20593;SDS011;10455;48.732;10.266;2023-05-14T19:19:37;6.73;;;6.13;;
20593;SDS011;10455;48.732;10.266;2023-05-14T19:24:39;7.40;;;6.80;;
20593;SDS011;10455;48.732;10.266;2023-05-14T19:29:41;7.60;;;6.90;;
20593;SDS011;10455;48.732;10.266;2023-05-14T19:34:44;7.57;;;6.80;;
20593;SDS011;10455;48.732;10.266;2023-05-14T19:39:46;7.43;;;6.83;;
20593;SDS011;10455;48.732;10.266;2023-05-14T19:44:48;7.50;;;6.87;;
20593;SDS011;10455;48.732;10.266;2023-05-14T19:49:51;7.77;;;6.97;;
20593;SDS011;10455;48.732;10.266;2023-05-14T19:54:53;7.30;;;6.47;;
20593;SDS011;10455;48.732;10.266;2023-05-14T19:59:55;8.77;;;7.23;;
20593;SDS011;10455;48.732;10.266;2023-05-14T20:04:58;8.37;;;7.43;;
20593;SDS011;10455;48.732;10.266;2023-05-14T20:10:00;8.23;;;7.43;;
20593;SDS011;10455;48.732;10.266;2023-05-14T20:15:02;7.97;;;7.27;;
20593;SDS011;10455;48.732;10.266;2023-05-14T20:20:06;7.73;;;7.03;;
20593;SDS011;10455;48.732;10.266;2023-05-14T20:25:11;7.87;;;7.07;;
20593;SDS011;10455;48.732;10.266;2023-05-14T20:30:12;7.63;;;6.90;;
20593;SDS011;10455;48.732;10.266;2023-05-14T20:35:16;7.17;;;6.57;;
20593;SDS011;10455;48.732;10.266;2023-05-14T20:40:18;8.17;;;7.47;;
20593;SDS011;10455;48.732;10.266;2023-05-14T20:45:20;7.67;;;6.97;;
20593;SDS011;10455;48.732;10.266;2023-05-14T20:50:23;8.00;;;7.30;;
20593;SDS011;10455;48.732;10.266;2023-05-14T20:55:26;7.83;;;7.03;;
20593;SDS011;10455;48.732;10.266;2023-05-14T21:00:28;8.73;;;7.23;;
20593;SDS011;10455;48.732;10.266;2023-05-14T21:05:32;7.47;;;6.77;;
20593;SDS011;10455;48.732;10.266;2023-05-14T21:10:34;7.97;;;7.30;;
20593;SDS011;10455;48.732;10.266;2023-05-14T21:15:35;8.57;;;7.70;;
20593;SDS011;10455;48.732;10.266;2023-05-14T21:20:39;6.77;;;6.27;;
20593;SDS011;10455;48.732;10.266;2023-05-14T21:25:41;7.73;;;7.03;;
20593;SDS011;10455;48.732;10.266;2023-05-14T21:30:43;7.80;;;7.10;;
20593;SDS011;10455;48.732;10.266;2023-05-14T21:35:46;7.30;;;6.70;;
20593;SDS011;10455;48.732;10.266;2023-05-14T21:40:48;7.67;;;6.97;;
20593;SDS011;10455;48.732;10.266;2023-05-14T21:45:50;8.07;;;7.47;;
20593;SDS011;10455;48.732;10.266;2023-05-14T21:50:53;9.23;;;8.30;;
20593;SDS011;10455;48.732;10.266;2023-05-14T21:55:55;8.53;;;7.77;;
20593;SDS011;10455;48.732;10.266;2023-05-14T22:00:57;8.93;;;6.93;;
20593;SDS011;10455;48.732;10.266;2023-05-14T22:06:00;8.47;;;7.77;;
20593;SDS011;10455;48.732;10.266;2023-05-14T22:11:02;10.03;;;6.97;;
20593;SDS011;10455;48.732;10.266;2023-05-14T22:16:04;10.10;;;7.77;;
20593;SDS011;10455;48.732;10.266;2023-05-14T22:21:08;8.60;;;7.80;;
20593;SDS011;10455;48.732;10.266;2023-05-14T22:26:10;8.10;;;7.40;;
20593;SDS011;10455;48.732;10.266;2023-05-14T22:31:12;7.90;;;7.20;;
20593;SDS011;10455;48.732;10.266;2023-05-14T22:36:16;8.07;;;7.40;;
20593;SDS011;10455;48.732;10.266;2023-05-14T22:41:18;8.13;;;7.40;;
20593;SDS011;10455;48.732;10.266;2023-05-14T22:46:21;9.53;;;8.53;;
20593;SDS011;10455;48.732;10.266;2023-05-14T22:51:24;9.20;;;8.30;;
20593;SDS011;10455;48.732;10.266;2023-05-14T22:56:26;10.50;;;9.43;;
20593;SDS011;10455;48.732;10.266;2023-05-14T23:01:28;9.77;;;8.87;;
20593;SDS011;10455;48.732;10.266;2023-05-14T23:06:33;8.77;;;7.97;;
20593;SDS011;10455;48.732;10.266;2023-05-14T23:11:34;9.50;;;8.50;;
20593;SDS011;10455;48.732;10.266;2023-05-14T23:16:36;10.23;;;8.97;;
20593;SDS011;10455;48.732;10.266;2023-05-14T23:21:40;10.23;;;9.13;;
20593;SDS011;10455;48.732;10.266;2023-05-14T23:26:41;8.40;;;7.70;;
20593;SDS011;10455;48.732;10.266;2023-05-14T23:31:43;10.60;;;8.97;;
20593;SDS011;10455;48.732;10.266;2023-05-14T23:36:47;9.37;;;8.50;;
20593;SDS011;10455;48.732;10.266;2023-05-14T23:41:49;12.73;;;10.23;;
20593;SDS011;10455;48.732;10.266;2023-05-14T23:46:51;15.07;;;13.47;;
20593;SDS011;10455;48.732;10.266;2023-05-14T23:51:54;9.77;;;8.87;;
20593;SDS011;10455;48.732;10.266;2023-05-14T23:56:56;8.70;;;7.90;;
